createdAt,value
2017-01-26T00:02:11.513Z,61.58
2017-01-26T00:04:23.761Z,61.57
2017-01-26T00:06:36.127Z,61.55
2017-01-26T00:08:48.387Z,61.57
2017-01-26T00:10:55.731Z,61.59
2017-01-26T00:13:08.146Z,61.65
2017-01-26T00:15:20.520Z,61.61
2017-01-26T00:17:33.130Z,61.58
2017-01-26T00:19:45.295Z,61.61
2017-01-26T00:21:58.445Z,61.64
2017-01-26T00:24:11.034Z,61.65
2017-01-26T00:26:23.225Z,61.63
2017-01-26T00:28:35.546Z,61.63
2017-01-26T00:30:47.961Z,61.61
2017-01-26T00:33:00.203Z,61.59
2017-01-26T00:35:12.501Z,61.59
2017-01-26T00:37:24.836Z,61.59
2017-01-26T00:39:37.325Z,61.6
2017-01-26T00:41:49.525Z,61.56
2017-01-26T00:44:01.840Z,61.58
2017-01-26T00:46:14.271Z,61.6
2017-01-26T00:48:26.592Z,61.6
2017-01-26T00:50:38.812Z,61.63
2017-01-26T00:52:51.302Z,61.62
2017-01-26T00:55:03.712Z,61.62
2017-01-26T00:57:16.542Z,61.59
2017-01-26T00:59:28.966Z,61.63
2017-01-26T01:01:36.233Z,61.63
2017-01-26T01:03:48.469Z,61.6
2017-01-26T01:06:00.877Z,61.59
2017-01-26T01:08:13.194Z,61.57
2017-01-26T01:10:25.390Z,61.61
2017-01-26T01:12:37.639Z,61.65
2017-01-26T01:14:49.830Z,61.66
2017-01-26T01:17:02.257Z,61.66
2017-01-26T01:19:14.541Z,61.65
2017-01-26T01:21:26.667Z,61.65
2017-01-26T01:23:39.085Z,61.65
2017-01-26T01:25:51.253Z,61.68
2017-01-26T01:28:03.539Z,61.74
2017-01-26T01:30:15.984Z,61.68
2017-01-26T01:32:24.146Z,61.64
2017-01-26T01:34:36.417Z,61.63
2017-01-26T01:36:48.723Z,61.63
2017-01-26T01:39:01.235Z,61.67
2017-01-26T01:41:08.649Z,61.74
2017-01-26T01:43:15.937Z,61.69
2017-01-26T01:45:28.304Z,61.69
2017-01-26T01:47:40.551Z,61.68
2017-01-26T01:49:47.910Z,61.68
2017-01-26T01:52:00.092Z,61.69
2017-01-26T01:54:13.325Z,61.67
2017-01-26T01:56:25.599Z,61.69
2017-01-26T01:58:37.906Z,61.67
2017-01-26T02:00:50.359Z,61.66
2017-01-26T02:03:02.762Z,61.69
2017-01-26T02:05:15.617Z,61.69
2017-01-26T02:07:23.405Z,61.7
2017-01-26T02:09:35.550Z,61.71
2017-01-26T02:11:47.764Z,61.75
2017-01-26T02:14:00.106Z,61.73
2017-01-26T02:16:12.417Z,61.68
2017-01-26T02:18:24.738Z,61.69
2017-01-26T02:20:31.939Z,61.72
2017-01-26T02:22:39.302Z,61.74
2017-01-26T02:24:51.741Z,61.76
2017-01-26T02:27:03.886Z,61.75
2017-01-26T02:29:16.198Z,61.74
2017-01-26T02:31:28.666Z,61.74
2017-01-26T02:33:40.976Z,61.78
2017-01-26T02:35:53.259Z,61.76
2017-01-26T02:38:05.876Z,61.74
2017-01-26T02:40:13.872Z,61.77
2017-01-26T02:42:26.410Z,61.74
2017-01-26T02:44:38.817Z,61.7
2017-01-26T02:46:51.053Z,61.72
2017-01-26T02:48:58.475Z,61.77
2017-01-26T02:51:10.673Z,61.79
2017-01-26T02:53:22.956Z,61.76
2017-01-26T02:55:35.350Z,61.73
2017-01-26T02:57:42.713Z,61.8
2017-01-26T02:59:55.457Z,61.77
2017-01-26T03:02:07.688Z,61.76
2017-01-26T03:04:19.995Z,61.76
2017-01-26T03:06:32.328Z,61.79
2017-01-26T03:08:45.632Z,61.81
2017-01-26T03:10:57.838Z,61.79
2017-01-26T03:13:10.139Z,61.8
2017-01-26T03:15:17.716Z,61.81
2017-01-26T03:17:25.186Z,61.83
2017-01-26T03:19:37.637Z,61.87
2017-01-26T03:21:49.981Z,61.84
2017-01-26T03:24:02.394Z,61.84
2017-01-26T03:26:18.611Z,61.82
2017-01-26T03:28:30.780Z,61.78
2017-01-26T03:30:43.159Z,61.78
2017-01-26T03:32:58.093Z,61.82
2017-01-26T03:35:13.203Z,61.8
2017-01-26T03:37:25.442Z,61.82
2017-01-26T03:39:37.647Z,61.84
2017-01-26T03:41:49.894Z,61.83
2017-01-26T03:44:02.055Z,61.82
2017-01-26T03:46:14.369Z,61.8
2017-01-26T03:48:16.828Z,61.8
2017-01-26T03:50:29.512Z,61.78
2017-01-26T03:52:37.459Z,61.82
2017-01-26T03:54:49.856Z,61.84
2017-01-26T03:57:02.255Z,61.86
2017-01-26T03:59:14.447Z,61.83
2017-01-26T04:01:21.754Z,61.83
2017-01-26T04:03:29.871Z,61.84
2017-01-26T04:05:42.282Z,61.87
2017-01-26T04:07:54.857Z,61.83
2017-01-26T04:10:02.198Z,61.78
2017-01-26T04:12:14.569Z,61.79
2017-01-26T04:14:26.792Z,61.83
2017-01-26T04:16:39.029Z,61.83
2017-01-26T04:18:52.313Z,61.85
2017-01-26T04:21:00.200Z,61.82
2017-01-26T04:23:12.452Z,61.82
2017-01-26T04:25:25.266Z,61.83
2017-01-26T04:27:37.950Z,61.85
2017-01-26T04:29:50.458Z,61.86
2017-01-26T04:32:02.843Z,61.84
2017-01-26T04:34:15.209Z,61.82
2017-01-26T04:36:22.570Z,61.84
2017-01-26T04:38:35.026Z,61.83
2017-01-26T04:40:47.503Z,61.83
2017-01-26T04:42:59.771Z,61.86
2017-01-26T04:45:12.070Z,61.85
2017-01-26T04:47:24.361Z,61.8
2017-01-26T04:49:37.709Z,61.78
2017-01-26T04:51:44.974Z,61.8
2017-01-26T04:53:57.394Z,61.82
2017-01-26T04:56:09.605Z,61.78
2017-01-26T04:58:16.884Z,61.78
2017-01-26T05:00:29.489Z,61.79
2017-01-26T05:02:42.313Z,61.81
2017-01-26T05:04:54.758Z,61.82
2017-01-26T05:07:07.218Z,61.82
2017-01-26T05:09:14.520Z,61.81
2017-01-26T05:11:26.876Z,61.82
2017-01-26T05:13:39.148Z,61.83
2017-01-26T05:15:51.543Z,61.84
2017-01-26T05:18:03.889Z,61.83
2017-01-26T05:20:16.116Z,61.85
2017-01-26T05:22:28.386Z,61.86
2017-01-26T05:24:40.616Z,61.86
2017-01-26T05:26:47.971Z,61.85
2017-01-26T05:29:00.373Z,61.86
2017-01-26T05:31:12.558Z,61.84
2017-01-26T05:33:10.102Z,61.84
2017-01-26T05:35:22.702Z,61.86
2017-01-26T05:37:35.777Z,61.87
2017-01-26T05:39:48.371Z,61.9
2017-01-26T05:42:00.845Z,61.92
2017-01-26T05:44:13.283Z,61.89
2017-01-26T05:46:25.731Z,61.87
2017-01-26T05:48:38.034Z,61.86
2017-01-26T05:50:50.389Z,61.85
2017-01-26T05:53:02.686Z,61.82
2017-01-26T05:55:14.901Z,61.76
2017-01-26T05:57:27.178Z,61.79
2017-01-26T05:59:39.544Z,61.81
2017-01-26T06:01:46.888Z,61.82
2017-01-26T06:03:54.217Z,61.84
2017-01-26T06:06:06.859Z,61.85
2017-01-26T06:08:14.323Z,61.87
2017-01-26T06:10:27.868Z,61.87
2017-01-26T06:12:40.598Z,61.86
2017-01-26T06:14:48.756Z,61.83
2017-01-26T06:17:00.935Z,61.84
2017-01-26T06:19:13.257Z,61.83
2017-01-26T06:21:20.612Z,61.84
2017-01-26T06:23:33.011Z,61.85
2017-01-26T06:25:45.253Z,61.85
2017-01-26T06:27:57.495Z,61.83
2017-01-26T06:30:10.842Z,61.82
2017-01-26T06:32:23.237Z,61.82
2017-01-26T06:34:35.614Z,61.83
2017-01-26T06:36:42.989Z,61.8
2017-01-26T06:38:50.348Z,61.85
2017-01-26T06:41:10.114Z,61.85
2017-01-26T06:43:22.521Z,61.84
2017-01-26T06:45:35.161Z,61.76
2017-01-26T06:47:47.918Z,61.77
2017-01-26T06:49:55.427Z,61.81
2017-01-26T06:52:07.890Z,61.74
2017-01-26T06:54:20.188Z,61.7
2017-01-26T06:56:32.490Z,61.68
2017-01-26T06:58:40.255Z,61.69
2017-01-26T07:00:52.405Z,61.67
2017-01-26T07:03:04.758Z,61.67
2017-01-26T07:05:17.053Z,61.66
2017-01-26T07:07:29.687Z,61.64
2017-01-26T07:09:41.872Z,61.58
2017-01-26T07:11:55.192Z,61.57
2017-01-26T07:14:07.553Z,61.54
2017-01-26T07:16:19.908Z,61.52
2017-01-26T07:18:27.760Z,61.39
2017-01-26T07:20:30.396Z,61.32
2017-01-26T07:22:43.294Z,61.28
2017-01-26T07:24:55.642Z,61.24
2017-01-26T07:27:08.029Z,61.26
2017-01-26T07:29:20.428Z,61.26
2017-01-26T07:31:32.659Z,61.18
2017-01-26T07:33:45.035Z,61.09
2017-01-26T07:35:57.727Z,60.99
2017-01-26T07:38:10.028Z,60.92
2017-01-26T07:40:22.472Z,60.86
2017-01-26T07:42:34.819Z,60.82
2017-01-26T07:44:47.246Z,60.73
2017-01-26T07:46:59.676Z,60.62
2017-01-26T07:49:12.015Z,60.54
2017-01-26T07:51:19.585Z,60.45
2017-01-26T07:53:31.787Z,60.37
2017-01-26T07:55:44.357Z,60.33
2017-01-26T07:57:57.434Z,60.25
2017-01-26T08:00:09.925Z,60.2
2017-01-26T08:02:17.327Z,60.14
2017-01-26T08:04:24.667Z,60.07
2017-01-26T08:06:37.214Z,59.97
2017-01-26T08:08:49.647Z,59.91
2017-01-26T08:11:01.817Z,59.86
2017-01-26T08:13:09.363Z,59.8
2017-01-26T08:15:21.650Z,59.7
2017-01-26T08:17:30.266Z,59.64
2017-01-26T08:19:42.657Z,59.59
2017-01-26T08:22:03.865Z,59.51
2017-01-26T08:24:19.018Z,59.46
2017-01-26T08:26:31.254Z,59.36
2017-01-26T08:28:38.507Z,59.28
2017-01-26T08:30:46.397Z,59.21
2017-01-26T08:32:59.242Z,59.12
2017-01-26T08:35:11.463Z,59.02
2017-01-26T08:37:18.919Z,58.9
2017-01-26T08:39:31.218Z,58.74
2017-01-26T08:41:33.543Z,58.66
2017-01-26T08:43:45.807Z,58.57
2017-01-26T08:45:58.060Z,58.5
2017-01-26T08:48:10.456Z,58.49
2017-01-26T08:50:22.664Z,58.46
2017-01-26T08:52:34.887Z,58.39
2017-01-26T08:54:47.314Z,58.33
2017-01-26T08:56:54.910Z,58.29
2017-01-26T08:59:02.235Z,58.15
2017-01-26T09:01:14.625Z,58.05
2017-01-26T09:03:27.028Z,58.02
2017-01-26T09:05:39.600Z,57.96
2017-01-26T09:07:51.897Z,57.82
2017-01-26T09:10:06.158Z,57.72
2017-01-26T09:12:18.399Z,57.63
2017-01-26T09:14:30.883Z,57.56
2017-01-26T09:16:43.233Z,57.49
2017-01-26T09:18:55.499Z,57.4
2017-01-26T09:21:07.888Z,57.3
2017-01-26T09:23:20.320Z,57.13
2017-01-26T09:25:32.637Z,57.05
2017-01-26T09:27:40.118Z,56.92
2017-01-26T09:29:52.610Z,56.78
2017-01-26T09:32:05.013Z,56.49
2017-01-26T09:34:17.347Z,56.42
2017-01-26T09:36:29.759Z,56.33
2017-01-26T09:38:42.102Z,56.06
2017-01-26T09:40:54.612Z,55.94
2017-01-26T09:43:06.933Z,55.89
2017-01-26T09:45:19.407Z,55.81
2017-01-26T09:47:26.857Z,55.72
2017-01-26T09:49:34.106Z,55.81
2017-01-26T09:51:46.471Z,55.9
2017-01-26T09:53:58.830Z,55.8
2017-01-26T09:56:11.328Z,55.79
2017-01-26T09:58:23.933Z,55.76
2017-01-26T10:00:36.320Z,55.7
2017-01-26T10:02:43.596Z,55.55
2017-01-26T10:04:56.834Z,55.43
2017-01-26T10:07:04.014Z,55.3
2017-01-26T10:09:16.364Z,55.32
2017-01-26T10:11:23.804Z,55.32
2017-01-26T10:13:36.298Z,55.28
2017-01-26T10:15:48.675Z,55.34
2017-01-26T10:18:01.300Z,55.26
2017-01-26T10:20:09.827Z,55.32
2017-01-26T10:22:22.169Z,55.34
2017-01-26T10:24:24.686Z,55.31
2017-01-26T10:26:32.082Z,55.22
2017-01-26T10:28:44.341Z,55.16
2017-01-26T10:30:52.690Z,55.13
2017-01-26T10:33:05.000Z,55.04
2017-01-26T10:35:17.290Z,54.87
2017-01-26T10:37:19.654Z,54.77
2017-01-26T10:39:32.043Z,54.72
2017-01-26T10:41:44.423Z,54.68
2017-01-26T10:43:56.768Z,54.64
2017-01-26T10:46:09.111Z,54.54
2017-01-26T10:48:21.338Z,54.44
2017-01-26T10:50:33.783Z,54.47
2017-01-26T10:52:46.713Z,54.52
2017-01-26T10:54:59.034Z,54.54
2017-01-26T10:57:06.289Z,54.61
2017-01-26T10:59:18.521Z,54.46
2017-01-26T11:01:30.748Z,54.43
2017-01-26T11:03:42.948Z,54.31
2017-01-26T11:05:50.392Z,54.28
2017-01-26T11:07:57.733Z,54.43
2017-01-26T11:10:10.045Z,54.43
2017-01-26T11:12:22.287Z,54.21
2017-01-26T11:14:34.548Z,54.22
2017-01-26T11:16:46.801Z,54.46
2017-01-26T11:18:59.103Z,54.36
2017-01-26T11:21:11.406Z,54.39
2017-01-26T11:23:23.724Z,54.37
2017-01-26T11:25:36.097Z,54.3
2017-01-26T11:27:48.969Z,54.05
2017-01-26T11:30:01.642Z,53.99
2017-01-26T11:32:14.020Z,53.98
2017-01-26T11:34:21.198Z,53.96
2017-01-26T11:36:28.468Z,53.73
2017-01-26T11:38:46.210Z,53.6
2017-01-26T11:40:38.136Z,53.54
2017-01-26T11:42:50.609Z,53.38
2017-01-26T11:44:57.960Z,53.1
2017-01-26T11:47:10.330Z,52.64
2017-01-26T11:49:22.509Z,52.43
2017-01-26T11:51:34.867Z,52.58
2017-01-26T11:53:47.237Z,52.6
2017-01-26T11:55:59.642Z,52.55
2017-01-26T11:58:12.050Z,52.23
2017-01-26T12:00:24.622Z,52.44
2017-01-26T12:02:37.929Z,52.61
2017-01-26T12:04:50.227Z,52.54
2017-01-26T12:07:02.489Z,52.27
2017-01-26T12:09:09.936Z,51.57
2017-01-26T12:11:22.306Z,51
2017-01-26T12:13:24.789Z,50.31
2017-01-26T12:15:32.333Z,49.55
2017-01-26T12:17:39.727Z,49.41
2017-01-26T12:19:52.186Z,49.66
2017-01-26T12:22:05.631Z,49.7
2017-01-26T12:24:13.241Z,49.48
2017-01-26T12:26:25.793Z,47.49
2017-01-26T12:28:38.845Z,45.97
2017-01-26T12:30:46.147Z,43.6
2017-01-26T12:32:58.658Z,41.67
2017-01-26T12:35:11.548Z,41.3
2017-01-26T12:37:24.231Z,41.29
2017-01-26T12:39:36.694Z,41.31
2017-01-26T12:41:44.148Z,41.94
2017-01-26T12:43:56.412Z,43.28
2017-01-26T12:46:03.864Z,44.95
2017-01-26T12:48:16.099Z,46.24
2017-01-26T12:50:28.482Z,47.43
2017-01-26T12:52:35.892Z,48.13
2017-01-26T12:54:48.631Z,48.54
2017-01-26T12:57:01.277Z,49.69
2017-01-26T12:59:08.636Z,48.51
2017-01-26T13:01:20.988Z,47.95
2017-01-26T13:03:33.276Z,49.29
2017-01-26T13:05:40.845Z,48.71
2017-01-26T13:07:48.321Z,49.81
2017-01-26T13:10:00.971Z,49.66
2017-01-26T13:12:13.692Z,47.27
2017-01-26T13:14:26.115Z,46.91
2017-01-26T13:16:38.553Z,46.44
2017-01-26T13:18:51.379Z,46.81
2017-01-26T13:21:04.543Z,46.93
2017-01-26T13:23:16.781Z,46.8
2017-01-26T13:25:24.103Z,46.67
2017-01-26T13:27:36.487Z,47.37
2017-01-26T13:29:49.279Z,47.53
2017-01-26T13:32:01.610Z,48.15
2017-01-26T13:34:09.709Z,48.3
2017-01-26T13:36:24.078Z,48.24
2017-01-26T13:38:38.065Z,47.84
2017-01-26T13:40:50.652Z,47.73
2017-01-26T13:43:03.015Z,47.57
2017-01-26T13:45:15.352Z,47.63
2017-01-26T13:47:28.107Z,48.23
2017-01-26T13:49:40.612Z,47.85
2017-01-26T13:51:52.828Z,47.4
2017-01-26T13:54:05.206Z,47.32
2017-01-26T13:56:17.430Z,47.32
2017-01-26T13:58:30.183Z,46.88
2017-01-26T14:00:42.383Z,46.75
2017-01-26T14:02:54.991Z,47.04
2017-01-26T14:05:07.206Z,46.98
2017-01-26T14:07:19.544Z,47.08
2017-01-26T14:09:16.924Z,47.81
2017-01-26T14:11:24.116Z,48.07
2017-01-26T14:13:36.374Z,48.17
2017-01-26T14:15:48.687Z,48.52
2017-01-26T14:18:00.961Z,49.21
2017-01-26T14:20:08.490Z,48.77
2017-01-26T14:22:21.202Z,48.73
2017-01-26T14:24:33.684Z,48.8
2017-01-26T14:26:45.953Z,48.95
2017-01-26T14:28:58.342Z,48.85
2017-01-26T14:31:10.814Z,48.84
2017-01-26T14:33:18.178Z,49.18
2017-01-26T14:35:30.473Z,50.23
2017-01-26T14:37:37.961Z,50.94
2017-01-26T14:39:50.177Z,51.51
2017-01-26T14:41:57.665Z,52.12
2017-01-26T14:44:10.221Z,52.74
2017-01-26T14:46:17.585Z,53.21
2017-01-26T14:48:29.892Z,53.69
2017-01-26T14:50:42.150Z,54.08
2017-01-26T14:52:49.623Z,54.54
2017-01-26T14:54:57.002Z,55.12
2017-01-26T14:57:09.655Z,55.5
2017-01-26T14:59:22.216Z,55.89
2017-01-26T15:01:29.652Z,56.32
2017-01-26T15:03:42.080Z,56.75
2017-01-26T15:05:54.570Z,57.18
2017-01-26T15:08:06.901Z,57.68
2017-01-26T15:10:14.301Z,58.08
2017-01-26T15:12:26.708Z,58.42
2017-01-26T15:14:28.984Z,58.77
2017-01-26T15:16:41.322Z,59.05
2017-01-26T15:18:53.856Z,59.27
2017-01-26T15:21:06.736Z,59.55
2017-01-26T15:23:19.657Z,59.85
2017-01-26T15:25:35.282Z,60.12
2017-01-26T15:27:51.941Z,60.39
2017-01-26T15:30:04.883Z,60.63
2017-01-26T15:32:17.931Z,60.85
2017-01-26T15:34:30.870Z,61.09
2017-01-26T15:36:46.558Z,61.27
2017-01-26T15:39:01.838Z,61.47
2017-01-26T15:41:20.396Z,61.68
2017-01-26T15:43:33.351Z,61.9
2017-01-26T15:45:40.723Z,62.1
2017-01-26T15:47:54.091Z,62.3
2017-01-26T15:50:01.711Z,62.43
2017-01-26T15:52:15.330Z,62.62
2017-01-26T15:54:28.413Z,62.78
2017-01-26T15:56:40.750Z,62.94
2017-01-26T15:58:53.234Z,63.13
2017-01-26T16:01:05.571Z,63.28
2017-01-26T16:03:18.641Z,63.43
2017-01-26T16:05:35.837Z,63.5
2017-01-26T16:08:06.607Z,63.6
2017-01-26T16:10:46.133Z,63.71
2017-01-26T16:13:20.901Z,63.8
2017-01-26T16:16:03.622Z,63.89
2017-01-26T16:18:41.455Z,63.99
2017-01-26T16:21:20.194Z,64.07
2017-01-26T16:23:56.931Z,64.12
2017-01-26T16:26:37.853Z,64.21
2017-01-26T16:29:22.623Z,64.31
2017-01-26T16:31:58.821Z,64.34
2017-01-26T16:34:45.439Z,64.41
2017-01-26T16:37:32.120Z,64.47
2017-01-26T16:40:19.231Z,64.54
2017-01-26T16:43:08.797Z,64.57
2017-01-26T16:45:55.130Z,64.62
2017-01-26T16:48:25.521Z,64.62
2017-01-26T16:51:00.242Z,64.62
2017-01-26T16:53:50.192Z,64.63
2017-01-26T16:56:39.550Z,64.63
2017-01-26T16:59:25.259Z,64.74
2017-01-26T17:02:17.476Z,64.82
2017-01-26T17:04:38.113Z,64.89
2017-01-26T17:06:50.502Z,64.93
2017-01-26T17:09:02.921Z,64.95
2017-01-26T17:11:15.232Z,64.99
2017-01-26T17:13:27.449Z,64.99
2017-01-26T17:15:34.862Z,64.98
2017-01-26T17:17:47.240Z,64.96
2017-01-26T17:19:59.555Z,64.96
2017-01-26T17:22:11.974Z,64.96
2017-01-26T17:24:24.295Z,64.96
2017-01-26T17:26:36.699Z,64.97
2017-01-26T17:28:44.164Z,64.98
2017-01-26T17:30:51.621Z,64.99
2017-01-26T17:33:03.954Z,65.01
2017-01-26T17:35:16.328Z,65.03
2017-01-26T17:37:28.956Z,65.05
2017-01-26T17:39:41.599Z,65.05
2017-01-26T17:41:48.997Z,65.07
2017-01-26T17:43:56.368Z,65.08
2017-01-26T17:46:03.838Z,65.11
2017-01-26T17:48:16.059Z,65.1
2017-01-26T17:50:28.351Z,65.13
2017-01-26T17:52:40.805Z,65.13
2017-01-26T17:54:53.257Z,65.13
2017-01-26T17:56:57.187Z,65.15
2017-01-26T17:59:09.654Z,65.15
2017-01-26T18:01:17.136Z,65.14
2017-01-26T18:03:29.502Z,65.12
2017-01-26T18:05:41.975Z,65.13
2017-01-26T18:07:54.359Z,65.12
2017-01-26T18:10:06.845Z,65.09
2017-01-26T18:12:19.236Z,65.08
2017-01-26T18:14:31.637Z,65.05
2017-01-26T18:16:43.928Z,65.06
2017-01-26T18:18:56.256Z,65.05
2017-01-26T18:21:09.739Z,65.04
2017-01-26T18:23:23.259Z,65.02
2017-01-26T18:25:35.798Z,64.93
2017-01-26T18:27:48.300Z,64.85
2017-01-26T18:30:00.885Z,64.82
2017-01-26T18:32:14.710Z,64.77
2017-01-26T18:34:23.177Z,64.72
2017-01-26T18:36:35.646Z,64.65
2017-01-26T18:38:48.896Z,64.61
2017-01-26T18:40:57.512Z,64.62
2017-01-26T18:43:10.100Z,64.62
2017-01-26T18:45:13.723Z,64.6
2017-01-26T18:47:23.470Z,64.6
2017-01-26T18:49:31.790Z,64.56
2017-01-26T18:51:44.131Z,64.53
2017-01-26T18:53:56.601Z,64.5
2017-01-26T18:56:10.752Z,64.5
2017-01-26T18:58:23.199Z,64.45
2017-01-26T19:00:36.691Z,64.44
2017-01-26T19:02:49.114Z,64.43
2017-01-26T19:05:02.145Z,64.42
2017-01-26T19:07:15.303Z,64.39
2017-01-26T19:09:22.798Z,64.34
2017-01-26T19:11:35.050Z,64.28
2017-01-26T19:13:47.530Z,64.22
2017-01-26T19:15:59.826Z,64.19
2017-01-26T19:18:12.415Z,64.19
2017-01-26T19:20:24.845Z,64.18
2017-01-26T19:22:37.187Z,64.15
2017-01-26T19:24:50.266Z,64.1
2017-01-26T19:27:03.392Z,64.07
2017-01-26T19:29:16.008Z,64.01
2017-01-26T19:31:28.435Z,63.98
2017-01-26T19:33:43.053Z,63.91
2017-01-26T19:35:56.057Z,63.84
2017-01-26T19:38:05.862Z,63.76
2017-01-26T19:40:18.379Z,63.69
2017-01-26T19:42:31.610Z,63.59
2017-01-26T19:44:44.136Z,63.54
2017-01-26T19:46:56.496Z,63.5
2017-01-26T19:49:08.773Z,63.54
2017-01-26T19:51:20.971Z,63.54
2017-01-26T19:53:33.213Z,63.53
2017-01-26T19:55:40.641Z,63.53
2017-01-26T19:57:55.721Z,63.5
2017-01-26T20:00:08.832Z,63.47
2017-01-26T20:02:21.335Z,63.45
2017-01-26T20:04:33.858Z,63.43
2017-01-26T20:06:47.077Z,63.31
2017-01-26T20:08:56.165Z,63.23
2017-01-26T20:11:08.718Z,63.19
2017-01-26T20:13:22.353Z,63.18
2017-01-26T20:15:35.662Z,63.16
2017-01-26T20:17:48.922Z,63.14
2017-01-26T20:19:56.620Z,63.13
2017-01-26T20:22:11.151Z,63.05
2017-01-26T20:24:19.205Z,63.02
2017-01-26T20:26:31.664Z,62.97
2017-01-26T20:28:39.357Z,62.95
2017-01-26T20:30:54.862Z,62.89
2017-01-26T20:33:07.560Z,62.87
2017-01-26T20:35:22.072Z,62.87
2017-01-26T20:37:36.532Z,62.81
2017-01-26T20:39:51.034Z,62.76
2017-01-26T20:42:04.750Z,62.76
2017-01-26T20:44:12.619Z,62.77
2017-01-26T20:46:24.926Z,62.78
2017-01-26T20:48:37.226Z,62.73
2017-01-26T20:50:39.781Z,62.7
2017-01-26T20:52:52.558Z,62.64
2017-01-26T20:55:05.378Z,62.62
2017-01-26T20:57:12.777Z,62.55
2017-01-26T20:59:25.126Z,62.5
2017-01-26T21:01:37.559Z,62.41
2017-01-26T21:03:49.818Z,62.41
2017-01-26T21:06:02.218Z,62.44
2017-01-26T21:08:14.596Z,62.45
2017-01-26T21:10:26.779Z,62.46
2017-01-26T21:12:39.135Z,62.45
2017-01-26T21:14:51.539Z,62.43
2017-01-26T21:16:58.889Z,62.4
2017-01-26T21:19:11.498Z,62.38
2017-01-26T21:21:23.904Z,62.34
2017-01-26T21:23:36.659Z,62.29
2017-01-26T21:25:49.245Z,62.25
2017-01-26T21:28:01.919Z,62.25
2017-01-26T21:30:14.329Z,62.24
2017-01-26T21:32:26.647Z,62.23
2017-01-26T21:34:38.866Z,62.26
2017-01-26T21:36:46.115Z,62.24
2017-01-26T21:38:58.327Z,62.17
2017-01-26T21:41:10.792Z,62.13
2017-01-26T21:43:23.361Z,62.11
2017-01-26T21:45:36.110Z,62.08
2017-01-26T21:47:48.536Z,62.07
2017-01-26T21:50:00.803Z,62.05
2017-01-26T21:52:13.210Z,62.03
2017-01-26T21:54:25.746Z,61.99
2017-01-26T21:56:38.000Z,61.96
2017-01-26T21:58:50.313Z,61.9
2017-01-26T22:00:57.706Z,61.83
2017-01-26T22:03:10.129Z,61.79
2017-01-26T22:05:22.419Z,61.76
2017-01-26T22:07:34.700Z,61.79
2017-01-26T22:09:46.891Z,61.78
2017-01-26T22:11:54.165Z,61.79
2017-01-26T22:14:06.440Z,61.81
2017-01-26T22:16:18.817Z,61.83
2017-01-26T22:18:31.033Z,61.85
2017-01-26T22:20:43.323Z,61.85
2017-01-26T22:22:55.695Z,61.8
2017-01-26T22:25:08.099Z,61.79
2017-01-26T22:27:20.324Z,61.81
2017-01-26T22:29:32.660Z,61.76
2017-01-26T22:31:47.395Z,61.67
2017-01-26T22:33:54.687Z,61.59
2017-01-26T22:36:08.085Z,61.55
2017-01-26T22:38:20.446Z,61.52
2017-01-26T22:40:32.967Z,61.5
2017-01-26T22:42:45.142Z,61.51
2017-01-26T22:45:04.970Z,61.53
2017-01-26T22:47:34.059Z,61.47
2017-01-26T22:50:04.135Z,61.45
2017-01-26T22:52:21.074Z,61.42
2017-01-26T22:54:28.534Z,61.4
2017-01-26T22:56:40.316Z,61.42
2017-01-26T22:58:52.750Z,61.4
2017-01-26T23:01:19.991Z,61.37
2017-01-26T23:03:53.675Z,61.33
2017-01-26T23:06:27.144Z,61.23
2017-01-26T23:09:00.011Z,61.23
2017-01-26T23:11:33.554Z,61.25
2017-01-26T23:14:05.767Z,61.28
2017-01-26T23:16:38.767Z,61.29
2017-01-26T23:19:12.410Z,61.29
2017-01-26T23:21:45.684Z,61.31
2017-01-26T23:24:17.249Z,61.27
2017-01-26T23:26:51.479Z,61.24
2017-01-26T23:29:26.037Z,61.15
2017-01-26T23:32:00.101Z,61.08
2017-01-26T23:34:33.434Z,61.08
2017-01-26T23:36:51.653Z,61.09
2017-01-26T23:39:08.868Z,61.11
2017-01-26T23:41:22.401Z,61.12
2017-01-26T23:43:36.586Z,61.09
2017-01-26T23:45:47.770Z,61.07
2017-01-26T23:48:03.779Z,61.09
2017-01-26T23:50:18.230Z,61.07
2017-01-26T23:52:36.505Z,61.07
2017-01-26T23:54:51.002Z,61.06
2017-01-26T23:57:07.576Z,61.06
2017-01-26T23:59:25.157Z,61.07
